AirNav   ATP
 
 1628 users online  

2CN4 Wonderful Pistachios & Almonds Airport
Lost Hills, California, USA

GOING TO LOST HILLS?


FAA INFORMATION EFFECTIVE 26 APRIL 2018

Location

FAA Identifier: 2CN4
Lat/Long: 35-39-59.0000N / 119-53-47.0000W
35-39.983333N / 119-53.783333W
35.6663889 / -119.8963889
(estimated)
Elevation: 617 ft. / 188 m (estimated)
From city: 10 miles NW of LOST HILLS, CA
Time zone: UTC -7 (UTC -8 during Standard Time)
Zip code: 93249

Airport Operations

Airport use: Private use. Permission required prior to landing
Activation date: 06/2007
Control tower: no
ARTCC: LOS ANGELES CENTER
FSS: RIVERSIDE FLIGHT SERVICE STATION
Attendance: UNATNDD
Wind indicator: yes
Segmented circle: no
Lights: DUSK-2200

Nearby radio navigation aids

VOR radial/distance  VOR name  Freq  Var
AVEr058/4.2AVENAL VOR/DME117.1016E
FLWr341/34.4FELLOWS VOR/DME117.5016E
PRBr075/35.6PASO ROBLES VORTAC114.3016E

 
NDB name  Hdg/Dist  Freq  Var  ID
SALYER FARMS201/29.820516ECOR -.-. --- .-.

Airport Services

Runway Information

Runway 16/34

Dimensions: 5002 x 60 ft. / 1525 x 18 m
Surface: asphalt
Runway edge lights: low intensity
RUNWAY 16  RUNWAY 34
Traffic pattern: leftleft
Visual slope indicator: 2-box VASI on left2-box VASI on left

Airport Ownership and Management from official FAA records

Ownership: Privately-owned
Owner: WONDERFUL PISTACHIOS & ALMONDS
13646 HWY 33
LOST HILLS, CA 93249
Phone 661-797-6505
Manager: DANIEL LEE
13646 HWY 33
LOST HILLS, CA 93249
Phone 661-797-6505

Additional Remarks

30 FT PLINE ONE HALF NM E OF RY.

Instrument Procedures

There are no published instrument procedures at 2CN4.

Some nearby airports with instrument procedures:

KDLO - Delano Municipal Airport (32 nm E)
KPRB - Paso Robles Municipal Airport (36 nm W)
KMIT - Shafter Airport-Minter Field (36 nm E)
KNLC - Lemoore Naval Air Station (Reeves Field) (40 nm N)
KTLR - Mefford Field Airport (40 nm NE)
 
Loc | Ops | Rwys | IFR | FBO | Links
Com | Nav | Svcs | Stats | Notes

AirNav Hotels Sweepstakes
 
Area around 2CN4 (Wonderful Pistachios & Almonds Airport)
 
Road maps at: MapQuest Bing Google
 
Aerial photo
No photo
 
Sectional chart

 
Airport distance calculator
Flying to Wonderful Pistachios & Almonds Airport? Find the distance to fly.

From to 2CN4

Sunrise and sunset
Times for 23-May-2018
 Local
(UTC-7)
 Zulu
(UTC)
Morning civil twilight05:2112:21
Sunrise05:5012:50
Sunset20:0303:03
Evening civil twilight20:3203:32

Current date and time
Zulu (UTC)  23-May-2018 14:55:08
Local (UTC-7)  23-May-2018 07:55:08
 
METAR
2CN4 SuperAWOS
231355Z AUTO 27008KT 240V300 10SM 13/04 A2993
TAF
KPRB 
36nm W 
231120Z 2312/2412 29006KT P6SM OVC008 FM231500 29008KT P6SM OVC012 FM231800 22010KT P6SM SCT020 FM232100 20015G20KT P6SM SKC FM240500 20010KT P6SM SKC FM241100 25006KT P6SM BKN010
KNLC 
39nm N 
2307/2407 33008KT 9999 FEW180 641209 642102 532509 533404 QNH2975INS FM231500 34008KT 9999 FEW050 FEW200 641209 642102 532709 533607 QNH2978INS TEMPO 2319/2400 33010G15KT 9999 FEW030 SCT050 OVC100 BECMG 2404/2406 VRB06KT 9999 SCT030 BKN045 BKN100 641209 642102 532509 533404 QNH2970INS AUTOMATED SENSOR METWATCH 2307 TIL 2314 T14/2313Z T32/2323Z FS30102
KBFL 
44nm E 
231124Z 2312/2412 33008KT P6SM SCT200
KSBP 
44nm SW 
231120Z 2312/2412 31005KT P6SM OVC012 FM231700 VRB03KT P6SM BKN021 FM232000 30010KT P6SM SKC FM240400 30007KT P6SM BKN015 FM240900 VRB03KT P6SM OVC021
NOTAMs
Click for the latest NOTAMs
NOTAMs are issued by the DoD/FAA and will open in a separate window not controlled by AirNav.

 

 
 

Would you like to see your business listed on this page?

 If your business provides an interesting product or service to pilots, flight crews, aircraft, or users of the Wonderful Pistachios & Almonds Airport, you should consider listing it here.  To start the listing process, click on the button below
 
Add a business
 

Other Pages about Wonderful Pistachios & Almonds Airport

Update a link
 
Copyright © AirNav, LLC. All rights reserved. Privacy Policy  Contact